createdAt,value
2019-05-20T00:00:54.342Z,0.75
2019-05-20T00:01:54.332Z,0.43
2019-05-20T00:02:54.554Z,0.69
2019-05-20T00:03:54.241Z,0.63
2019-05-20T00:04:54.359Z,0.26
2019-05-20T00:05:55.189Z,0.00
2019-05-20T00:06:54.383Z,0.17
2019-05-20T00:07:54.322Z,0.58
2019-05-20T00:08:54.621Z,1.20
2019-05-20T00:09:54.298Z,0.34
2019-05-20T00:10:55.066Z,0.30
2019-05-20T00:11:54.295Z,0.11
2019-05-20T00:12:54.693Z,1.43
2019-05-20T00:13:54.318Z,0.72
2019-05-20T00:14:54.406Z,0.23
2019-05-20T00:15:54.261Z,0.53
2019-05-20T00:16:54.338Z,0.26
2019-05-20T00:17:54.341Z,0.61
2019-05-20T00:18:55.128Z,0.67
2019-05-20T00:19:54.694Z,0.14
2019-05-20T00:20:54.920Z,0.30
2019-05-20T00:21:54.297Z,0.00
2019-05-20T00:22:54.334Z,0.48
2019-05-20T00:23:54.310Z,0.67
2019-05-20T00:24:54.938Z,0.05
2019-05-20T00:25:55.111Z,0.18
2019-05-20T00:26:54.675Z,0.25
2019-05-20T00:27:54.731Z,0.36
2019-05-20T00:28:54.356Z,0.70
2019-05-20T00:29:54.396Z,0.88
2019-05-20T00:30:55.129Z,0.54
2019-05-20T00:31:54.695Z,0.94
2019-05-20T00:32:54.348Z,0.33
2019-05-20T00:33:54.315Z,0.79
2019-05-20T00:34:55.160Z,0.82
2019-05-20T00:35:54.973Z,0.04
2019-05-20T00:36:54.309Z,0.80
2019-05-20T00:37:55.082Z,0.22
2019-05-20T00:38:55.311Z,0.64
2019-05-20T00:39:54.347Z,0.21
2019-05-20T00:40:55.086Z,0.00
2019-05-20T00:41:54.688Z,0.53
2019-05-20T00:42:54.322Z,0.91
2019-05-20T00:43:54.737Z,0.30
2019-05-20T00:44:54.388Z,0.23
2019-05-20T00:45:54.299Z,0.06
2019-05-20T00:46:54.380Z,0.01
2019-05-20T00:47:54.358Z,0.49
2019-05-20T00:48:54.316Z,0.40
2019-05-20T00:49:54.739Z,0.24
2019-05-20T00:50:54.349Z,0.35
2019-05-20T00:51:54.668Z,0.25
2019-05-20T00:52:54.485Z,0.52
2019-05-20T00:53:54.361Z,0.76
2019-05-20T00:54:54.361Z,0.73
2019-05-20T00:55:54.507Z,0.56
2019-05-20T00:56:54.738Z,0.66
2019-05-20T00:57:54.692Z,0.27
2019-05-20T00:58:54.467Z,0.50
2019-05-20T00:59:54.712Z,0.35
2019-05-20T01:00:54.688Z,0.70
2019-05-20T01:01:54.462Z,1.45
2019-05-20T01:02:57.154Z,0.44
2019-05-20T01:03:54.331Z,0.02
2019-05-20T01:04:54.616Z,0.69
2019-05-20T01:05:54.564Z,0.17
2019-05-20T01:06:54.681Z,0.54
2019-05-20T01:07:54.322Z,0.84
2019-05-20T01:08:54.998Z,0.24
2019-05-20T01:09:54.684Z,0.34
2019-05-20T01:10:54.312Z,0.01
2019-05-20T01:11:55.475Z,0.01
2019-05-20T01:12:54.712Z,0.13
2019-05-20T01:13:54.324Z,0.52
2019-05-20T01:14:57.373Z,0.59
2019-05-20T01:15:54.716Z,0.50
2019-05-20T01:16:54.342Z,1.03
2019-05-20T01:17:54.701Z,0.28
2019-05-20T01:18:57.181Z,0.74
2019-05-20T01:19:54.341Z,0.00
2019-05-20T01:20:54.410Z,0.46
2019-05-20T01:21:54.394Z,0.25
2019-05-20T01:22:55.002Z,0.06
2019-05-20T01:23:54.421Z,0.37
2019-05-20T01:24:54.431Z,0.20
2019-05-20T01:25:54.353Z,0.68
2019-05-20T01:26:55.141Z,0.07
2019-05-20T01:27:54.667Z,0.46
2019-05-20T01:28:54.339Z,0.23
2019-05-20T01:29:54.752Z,0.13
2019-05-20T01:30:54.768Z,0.00
2019-05-20T01:31:54.350Z,0.29
2019-05-20T01:32:55.213Z,0.11
2019-05-20T01:33:54.939Z,0.22
2019-05-20T01:34:54.811Z,0.30
2019-05-20T01:35:55.542Z,0.28
2019-05-20T01:36:54.395Z,0.18
2019-05-20T01:37:54.344Z,0.22
2019-05-20T01:38:54.433Z,0.69
2019-05-20T01:39:54.617Z,0.20
2019-05-20T01:40:54.467Z,0.00
2019-05-20T01:41:54.406Z,0.06
2019-05-20T01:42:54.733Z,0.37
2019-05-20T01:43:55.192Z,0.05
2019-05-20T01:44:54.772Z,0.09
2019-05-20T01:45:54.411Z,0.00
2019-05-20T01:46:54.427Z,0.59
2019-05-20T01:47:54.449Z,0.00
2019-05-20T01:48:54.403Z,0.48
2019-05-20T01:49:54.409Z,0.29
2019-05-20T01:50:54.792Z,0.66
2019-05-20T01:51:54.417Z,0.06
2019-05-20T01:52:54.709Z,0.00
2019-05-20T01:53:54.467Z,0.03
2019-05-20T01:54:54.459Z,0.19
2019-05-20T01:55:54.398Z,0.63
2019-05-20T01:56:55.172Z,0.38
2019-05-20T01:57:54.408Z,0.12
2019-05-20T01:58:54.469Z,0.20
2019-05-20T01:59:54.833Z,0.35
2019-05-20T02:00:54.518Z,0.10
2019-05-20T02:01:54.411Z,0.30
2019-05-20T02:02:54.703Z,0.60
2019-05-20T02:03:54.436Z,0.07
2019-05-20T02:04:54.487Z,0.44
2019-05-20T02:05:54.362Z,0.07
2019-05-20T02:06:55.703Z,0.28
2019-05-20T02:07:54.421Z,0.05
2019-05-20T02:08:54.387Z,1.00
2019-05-20T02:09:55.247Z,0.09
2019-05-20T02:10:56.566Z,0.92
2019-05-20T02:11:54.764Z,0.36
2019-05-20T02:12:54.764Z,0.01
2019-05-20T02:13:54.433Z,0.00
2019-05-20T02:14:54.399Z,0.00
2019-05-20T02:15:54.702Z,0.00
2019-05-20T02:16:54.420Z,0.18
2019-05-20T02:17:54.387Z,0.26
2019-05-20T02:18:54.551Z,0.51
2019-05-20T02:19:54.740Z,0.15
2019-05-20T02:20:54.402Z,0.13
2019-05-20T02:21:54.802Z,0.33
2019-05-20T02:22:54.769Z,1.03
2019-05-20T02:23:54.394Z,0.24
2019-05-20T02:24:54.613Z,0.42
2019-05-20T02:25:54.414Z,0.05
2019-05-20T02:26:54.420Z,0.00
2019-05-20T02:27:54.581Z,0.00
2019-05-20T02:28:55.165Z,0.00
2019-05-20T02:29:55.482Z,0.04
2019-05-20T02:30:56.898Z,0.00
2019-05-20T02:31:54.810Z,0.33
2019-05-20T02:32:54.406Z,0.81
2019-05-20T02:33:54.477Z,0.00
2019-05-20T02:34:54.772Z,0.28
2019-05-20T02:35:54.415Z,0.35
2019-05-20T02:36:54.487Z,0.08
2019-05-20T02:37:54.490Z,0.51
2019-05-20T02:38:54.444Z,0.02
2019-05-20T02:39:54.573Z,0.00
2019-05-20T02:40:54.446Z,0.00
2019-05-20T02:41:54.537Z,0.00
2019-05-20T02:42:54.505Z,0.45
2019-05-20T02:43:54.489Z,0.05
2019-05-20T02:44:54.500Z,0.61
2019-05-20T02:45:54.397Z,0.67
2019-05-20T02:46:54.568Z,0.00
2019-05-20T02:47:55.060Z,0.05
2019-05-20T02:48:55.118Z,0.08
2019-05-20T02:49:54.490Z,0.01
2019-05-20T02:50:55.481Z,0.00
2019-05-20T02:51:54.431Z,0.00
2019-05-20T02:52:54.598Z,0.00
2019-05-20T02:53:54.783Z,0.00
2019-05-20T02:54:54.433Z,0.71
2019-05-20T02:55:54.469Z,0.39
2019-05-20T02:56:54.460Z,1.10
2019-05-20T02:57:54.408Z,0.18
2019-05-20T02:58:54.477Z,0.43
2019-05-20T02:59:54.791Z,0.00
2019-05-20T03:00:54.420Z,0.23
2019-05-20T03:01:54.490Z,0.00
2019-05-20T03:02:54.475Z,0.00
2019-05-20T03:04:10.055Z,0.00
2019-05-20T03:04:54.834Z,0.00
2019-05-20T03:05:54.462Z,0.00
2019-05-20T03:06:54.426Z,0.00
2019-05-20T03:07:54.531Z,0.00
2019-05-20T03:08:54.486Z,0.00
2019-05-20T03:09:54.458Z,0.00
2019-05-20T03:10:54.662Z,0.15
2019-05-20T03:11:54.672Z,0.31
2019-05-20T03:12:54.435Z,0.00
2019-05-20T03:13:54.521Z,0.00
2019-05-20T03:14:54.721Z,0.00
2019-05-20T03:15:55.180Z,0.06
2019-05-20T03:16:55.225Z,0.00
2019-05-20T03:17:54.803Z,0.24
2019-05-20T03:18:54.842Z,0.02
2019-05-20T03:19:54.847Z,0.21
2019-05-20T03:24:58.070Z,0.00
2019-05-20T03:25:58.456Z,0.00
2019-05-20T03:26:58.083Z,0.11
2019-05-20T03:27:58.388Z,0.46
2019-05-20T03:28:59.187Z,0.00
2019-05-20T03:29:58.116Z,0.00
2019-05-20T03:30:58.116Z,0.04
2019-05-20T03:31:58.121Z,0.33
2019-05-20T03:33:00.643Z,0.21
2019-05-20T03:33:58.784Z,0.17
2019-05-20T03:35:00.658Z,0.00
2019-05-20T03:35:58.082Z,0.00
2019-05-20T03:36:58.049Z,0.00
2019-05-20T03:37:58.472Z,0.00
2019-05-20T03:38:58.417Z,0.25
2019-05-20T03:39:58.133Z,0.02
2019-05-20T03:40:58.582Z,0.01
2019-05-20T03:41:58.217Z,0.19
2019-05-20T03:42:58.074Z,0.00
2019-05-20T03:43:58.501Z,0.52
2019-05-20T03:44:58.095Z,0.42
2019-05-20T03:45:59.371Z,0.72
2019-05-20T03:46:58.162Z,0.00
2019-05-20T03:47:58.106Z,0.56
2019-05-20T03:48:58.192Z,0.51
2019-05-20T03:49:58.213Z,0.04
2019-05-20T03:50:58.481Z,0.43
2019-05-20T03:51:58.062Z,0.31
2019-05-20T03:52:58.287Z,0.23
2019-05-20T03:53:58.119Z,0.04
2019-05-20T03:54:58.096Z,0.96
2019-05-20T03:55:58.626Z,0.10
2019-05-20T03:56:58.848Z,0.07
2019-05-20T03:57:58.098Z,0.61
2019-05-20T03:58:58.034Z,1.27
2019-05-20T03:59:58.323Z,0.07
2019-05-20T04:00:58.546Z,0.29
2019-05-20T04:02:00.842Z,0.53
2019-05-20T04:02:58.871Z,0.00
2019-05-20T04:03:58.133Z,0.00
2019-05-20T04:05:02.894Z,0.00
2019-05-20T04:05:58.160Z,0.82
2019-05-20T04:06:58.110Z,0.45
2019-05-20T04:07:58.117Z,0.35
2019-05-20T04:08:58.135Z,0.00
2019-05-20T04:09:58.292Z,0.00
2019-05-20T04:10:58.204Z,0.00
2019-05-20T04:11:58.125Z,0.36
2019-05-20T04:12:59.053Z,0.42
2019-05-20T04:13:59.003Z,0.37
2019-05-20T04:14:58.894Z,0.35
2019-05-20T04:15:58.135Z,0.11
2019-05-20T04:16:58.976Z,0.22
2019-05-20T04:17:58.495Z,0.32
2019-05-20T04:18:58.135Z,0.21
2019-05-20T04:19:58.106Z,0.12
2019-05-20T04:20:58.499Z,0.00
2019-05-20T04:21:58.454Z,0.85
2019-05-20T04:22:58.121Z,0.55
2019-05-20T04:24:00.941Z,0.68
2019-05-20T04:24:59.059Z,0.89
2019-05-20T04:25:58.238Z,0.26
2019-05-20T04:26:58.417Z,0.35
2019-05-20T04:27:58.159Z,0.06
2019-05-20T04:28:58.124Z,0.29
2019-05-20T04:29:58.894Z,0.47
2019-05-20T04:30:58.211Z,0.00
2019-05-20T04:31:58.820Z,0.36
2019-05-20T04:32:58.162Z,0.70
2019-05-20T04:33:58.138Z,0.01
2019-05-20T04:34:58.542Z,0.31
2019-05-20T04:35:58.822Z,0.59
2019-05-20T04:36:58.171Z,0.03
2019-05-20T04:37:58.127Z,1.76
2019-05-20T04:38:58.213Z,0.35
2019-05-20T04:39:58.211Z,1.39
2019-05-20T04:40:58.177Z,0.89
2019-05-20T04:41:58.078Z,0.63
2019-05-20T04:42:58.204Z,0.22
2019-05-20T04:43:58.241Z,0.60
2019-05-20T04:44:58.094Z,1.09
2019-05-20T04:45:58.211Z,0.82
2019-05-20T04:46:58.499Z,0.43
2019-05-20T04:47:58.194Z,0.38
2019-05-20T04:48:58.411Z,0.95
2019-05-20T04:49:58.499Z,0.65
2019-05-20T04:50:58.445Z,0.26
2019-05-20T04:51:58.156Z,0.40
2019-05-20T04:52:58.151Z,1.10
2019-05-20T04:53:58.158Z,1.07
2019-05-20T04:54:58.198Z,0.54
2019-05-20T04:55:58.374Z,0.00
2019-05-20T04:56:59.185Z,0.82
2019-05-20T04:57:58.190Z,0.32
2019-05-20T04:58:58.145Z,0.39
2019-05-20T04:59:58.362Z,0.00
2019-05-20T05:00:58.855Z,0.09
2019-05-20T05:01:58.499Z,0.74
2019-05-20T05:02:58.184Z,0.39
2019-05-20T05:03:58.532Z,0.27
2019-05-20T05:04:59.137Z,0.01
2019-05-20T05:05:58.573Z,0.17
2019-05-20T05:06:58.437Z,0.58
2019-05-20T05:07:59.113Z,0.00
2019-05-20T05:08:58.481Z,0.02
2019-05-20T05:09:58.222Z,0.74
2019-05-20T05:10:58.222Z,0.44
2019-05-20T05:11:58.757Z,0.10
2019-05-20T05:12:58.561Z,0.00
2019-05-20T05:13:58.166Z,0.00
2019-05-20T05:14:59.086Z,0.00
2019-05-20T05:15:58.670Z,0.09
2019-05-20T05:16:59.426Z,0.01
2019-05-20T05:17:58.156Z,0.00
2019-05-20T05:18:58.255Z,0.00
2019-05-20T05:19:58.186Z,0.03
2019-05-20T05:20:59.340Z,0.00
2019-05-20T05:21:58.210Z,0.00
2019-05-20T05:22:58.433Z,0.00
2019-05-20T05:23:59.336Z,0.00
2019-05-20T05:24:58.242Z,0.00
2019-05-20T05:25:58.417Z,0.00
2019-05-20T05:26:58.637Z,0.00
2019-05-20T05:27:58.230Z,0.02
2019-05-20T05:28:58.306Z,0.02
2019-05-20T05:29:58.402Z,0.49
2019-05-20T05:30:59.411Z,0.13
2019-05-20T05:31:58.212Z,0.00
2019-05-20T05:32:58.192Z,0.16
2019-05-20T05:33:58.571Z,0.10
2019-05-20T05:34:58.200Z,0.01
2019-05-20T05:35:58.621Z,0.32
2019-05-20T05:36:58.268Z,0.00
2019-05-20T05:37:58.262Z,0.00
2019-05-20T05:38:58.531Z,0.24
2019-05-20T05:39:58.491Z,0.46
2019-05-20T05:40:58.262Z,0.02
2019-05-20T05:41:58.529Z,0.61
2019-05-20T05:42:58.145Z,0.00
2019-05-20T05:43:58.471Z,0.00
2019-05-20T05:44:58.194Z,0.00
2019-05-20T05:45:58.308Z,0.19
2019-05-20T05:46:58.498Z,0.33
2019-05-20T05:47:59.231Z,0.00
2019-05-20T05:48:58.171Z,0.08
2019-05-20T05:49:58.579Z,0.39
2019-05-20T05:50:58.851Z,0.00
2019-05-20T05:51:58.280Z,0.00
2019-05-20T05:52:59.254Z,0.08
2019-05-20T05:53:58.639Z,0.00
2019-05-20T05:54:58.714Z,0.00
2019-05-20T05:55:58.277Z,0.00
2019-05-20T05:56:58.481Z,0.00
2019-05-20T05:57:58.171Z,0.00
2019-05-20T05:58:58.245Z,0.00
2019-05-20T05:59:58.233Z,0.00
2019-05-20T06:00:58.889Z,0.50
2019-05-20T06:01:58.162Z,0.26
2019-05-20T06:02:58.215Z,0.46
2019-05-20T06:03:58.571Z,0.18
2019-05-20T06:04:58.607Z,0.00
2019-05-20T06:06:11.695Z,0.05
2019-05-20T06:06:58.925Z,0.05
2019-05-20T06:07:58.238Z,0.66
2019-05-20T06:08:58.234Z,0.53
2019-05-20T06:09:58.189Z,0.40
2019-05-20T06:10:58.287Z,1.20
2019-05-20T06:11:58.239Z,0.31
2019-05-20T06:12:58.235Z,0.64
2019-05-20T06:13:58.377Z,1.17
2019-05-20T06:14:59.281Z,0.64
2019-05-20T06:15:59.184Z,0.00
2019-05-20T06:16:58.701Z,0.35
2019-05-20T06:18:01.080Z,0.00
2019-05-20T06:18:58.195Z,0.00
2019-05-20T06:19:58.609Z,0.00
2019-05-20T06:20:59.013Z,0.41
2019-05-20T06:21:58.229Z,0.36
2019-05-20T06:22:58.393Z,0.70
2019-05-20T06:23:58.270Z,0.96
2019-05-20T06:24:58.239Z,0.73
2019-05-20T06:25:58.644Z,0.72
2019-05-20T06:26:58.857Z,0.59
2019-05-20T06:27:58.230Z,0.69
2019-05-20T06:28:58.649Z,0.51
2019-05-20T06:29:58.314Z,0.32
2019-05-20T06:30:58.248Z,0.15
2019-05-20T06:31:58.306Z,0.59
2019-05-20T06:32:58.284Z,0.64
2019-05-20T06:33:58.261Z,0.50
2019-05-20T06:34:59.360Z,0.07
2019-05-20T06:35:58.292Z,0.73
2019-05-20T06:36:59.101Z,0.38
2019-05-20T06:37:58.703Z,0.00
2019-05-20T06:38:59.089Z,0.00
2019-05-20T06:39:58.536Z,0.61
2019-05-20T06:40:58.763Z,0.78
2019-05-20T06:41:58.312Z,0.39
2019-05-20T06:42:59.009Z,0.10
2019-05-20T06:43:58.214Z,0.16
2019-05-20T06:44:58.319Z,0.00
2019-05-20T06:45:59.253Z,0.00
2019-05-20T06:46:58.764Z,0.00
2019-05-20T06:47:58.274Z,0.87
2019-05-20T06:48:58.402Z,0.66
2019-05-20T06:49:58.555Z,0.88
2019-05-20T06:50:58.408Z,1.15
2019-05-20T06:51:58.358Z,1.38
2019-05-20T06:52:58.200Z,0.91
2019-05-20T06:53:58.633Z,0.33
2019-05-20T06:54:59.523Z,1.82
2019-05-20T06:55:58.273Z,1.30
2019-05-20T06:56:59.251Z,1.60
2019-05-20T06:57:58.255Z,1.81
2019-05-20T06:59:01.122Z,0.86
2019-05-20T06:59:58.342Z,0.68
2019-05-20T07:00:58.283Z,0.59
2019-05-20T07:01:58.273Z,0.55
2019-05-20T07:02:58.298Z,1.35
2019-05-20T07:03:58.613Z,1.16
2019-05-20T07:04:58.319Z,1.58
2019-05-20T07:05:59.087Z,0.84
2019-05-20T07:06:58.328Z,0.88
2019-05-20T07:08:01.310Z,0.71
2019-05-20T07:08:58.388Z,1.39
2019-05-20T07:09:58.302Z,1.08
2019-05-20T07:10:58.346Z,1.06
2019-05-20T07:11:58.309Z,1.36
2019-05-20T07:12:58.362Z,0.49
2019-05-20T07:13:58.266Z,1.79
2019-05-20T07:14:58.488Z,0.72
2019-05-20T07:15:58.460Z,1.47
2019-05-20T07:16:58.306Z,1.43
2019-05-20T07:17:58.350Z,1.08
2019-05-20T07:18:58.342Z,2.12
2019-05-20T07:19:58.292Z,0.24
2019-05-20T07:20:59.635Z,0.73
2019-05-20T07:21:58.299Z,0.77
2019-05-20T07:22:59.049Z,0.65
2019-05-20T07:23:58.567Z,1.06
2019-05-20T07:24:58.645Z,0.68
2019-05-20T07:25:58.381Z,0.67
2019-05-20T07:26:58.660Z,1.27
2019-05-20T07:27:58.383Z,1.31
2019-05-20T07:28:59.746Z,0.78
2019-05-20T07:29:58.756Z,1.13
2019-05-20T07:30:58.429Z,1.01
2019-05-20T07:31:58.632Z,0.29
2019-05-20T07:32:58.434Z,1.10
2019-05-20T07:33:58.342Z,0.42
2019-05-20T07:34:58.325Z,0.45
2019-05-20T07:35:58.500Z,0.13
2019-05-20T07:37:03.073Z,0.38
2019-05-20T07:37:58.646Z,0.33
2019-05-20T07:38:58.448Z,0.54
2019-05-20T07:40:00.334Z,2.12
2019-05-20T07:40:58.369Z,2.12
2019-05-20T07:41:58.437Z,1.11
2019-05-20T07:42:58.398Z,0.83
2019-05-20T07:44:00.922Z,1.05
2019-05-20T07:44:58.744Z,0.46
2019-05-20T07:45:58.394Z,0.30
2019-05-20T07:46:58.567Z,1.09
2019-05-20T07:47:59.546Z,0.51
2019-05-20T07:48:58.356Z,1.09
2019-05-20T07:49:58.478Z,1.35
2019-05-20T07:50:58.452Z,1.53
2019-05-20T07:51:58.364Z,3.07
2019-05-20T07:53:00.601Z,2.96
2019-05-20T07:53:58.451Z,2.41
2019-05-20T07:54:58.397Z,1.38
2019-05-20T07:55:59.181Z,1.34
2019-05-20T07:56:58.309Z,2.64
2019-05-20T07:57:59.081Z,2.31
2019-05-20T07:58:58.393Z,2.14
2019-05-20T07:59:58.420Z,1.24
2019-05-20T08:00:58.430Z,0.54
2019-05-20T08:01:58.533Z,0.44
2019-05-20T08:02:59.378Z,1.07
2019-05-20T08:03:58.362Z,0.93
2019-05-20T08:04:58.797Z,1.94
2019-05-20T08:05:58.417Z,1.35
2019-05-20T08:06:58.396Z,1.42
2019-05-20T08:07:58.497Z,1.20
2019-05-20T08:08:58.694Z,0.26
2019-05-20T08:09:58.367Z,1.08
2019-05-20T08:10:58.573Z,0.79
2019-05-20T08:11:59.299Z,1.06
2019-05-20T08:12:59.115Z,1.42
2019-05-20T08:13:58.369Z,1.97
2019-05-20T08:14:58.323Z,1.48
2019-05-20T08:15:58.435Z,1.50
2019-05-20T08:16:58.698Z,1.06
2019-05-20T08:17:58.704Z,3.05
2019-05-20T08:18:58.392Z,2.98
2019-05-20T08:19:58.457Z,1.84
2019-05-20T08:20:59.210Z,0.65
2019-05-20T08:21:59.117Z,1.50
2019-05-20T08:22:58.406Z,1.03
2019-05-20T08:23:58.348Z,1.11
2019-05-20T08:24:58.380Z,1.25
2019-05-20T08:25:59.753Z,0.62
2019-05-20T08:26:58.680Z,1.46
2019-05-20T08:27:58.419Z,3.15
2019-05-20T08:28:58.388Z,2.41
2019-05-20T08:29:58.953Z,1.73
2019-05-20T08:30:59.152Z,2.75
2019-05-20T08:31:58.436Z,2.54
2019-05-20T08:32:58.407Z,3.65
2019-05-20T08:33:59.130Z,0.83
2019-05-20T08:35:01.145Z,0.75
2019-05-20T08:35:58.406Z,1.07
2019-05-20T08:36:58.461Z,1.69
2019-05-20T08:37:58.604Z,2.12
2019-05-20T08:38:58.365Z,1.51
2019-05-20T08:39:58.413Z,1.53
2019-05-20T08:40:58.419Z,1.12
2019-05-20T08:41:58.731Z,0.39
2019-05-20T08:42:58.318Z,0.45
2019-05-20T08:43:59.029Z,1.05
2019-05-20T08:44:58.814Z,1.04
2019-05-20T08:45:58.633Z,0.72
2019-05-20T08:46:58.573Z,1.00
2019-05-20T08:47:58.396Z,1.25
2019-05-20T08:48:58.472Z,1.82
2019-05-20T08:49:58.467Z,1.31
2019-05-20T08:50:58.419Z,1.22
2019-05-20T08:51:58.458Z,0.74
2019-05-20T08:52:58.412Z,0.94
2019-05-20T08:53:58.608Z,1.56
2019-05-20T08:54:58.391Z,0.95
2019-05-20T08:55:58.782Z,0.97
2019-05-20T08:56:58.384Z,1.57
2019-05-20T08:57:58.475Z,2.84
2019-05-20T08:58:58.449Z,1.22
2019-05-20T08:59:58.396Z,0.76
2019-05-20T09:00:58.618Z,1.11
2019-05-20T09:01:58.426Z,0.85
2019-05-20T09:02:58.492Z,1.54
2019-05-20T09:03:58.344Z,0.79
2019-05-20T09:04:58.480Z,0.68
2019-05-20T09:05:58.505Z,0.18
2019-05-20T09:06:58.385Z,1.07
2019-05-20T09:08:02.974Z,1.51
2019-05-20T09:08:58.389Z,1.93
2019-05-20T09:09:58.373Z,1.31
2019-05-20T09:10:59.723Z,1.09
2019-05-20T09:11:58.844Z,0.89
2019-05-20T09:12:58.397Z,0.15
2019-05-20T09:13:58.489Z,0.80
2019-05-20T09:14:58.442Z,0.84
2019-05-20T09:15:58.417Z,0.26
2019-05-20T09:16:58.583Z,0.48
2019-05-20T09:17:59.339Z,0.32
2019-05-20T09:18:58.501Z,0.18
2019-05-20T09:19:58.798Z,0.03
2019-05-20T09:20:58.447Z,0.00
2019-05-20T09:21:58.402Z,0.55
2019-05-20T09:23:02.542Z,0.98
2019-05-20T09:23:58.463Z,1.48
2019-05-20T09:24:58.443Z,0.57
2019-05-20T09:25:58.489Z,0.96
2019-05-20T09:26:58.775Z,1.00
2019-05-20T09:27:59.448Z,0.66
2019-05-20T09:28:59.375Z,0.52
2019-05-20T09:29:58.907Z,1.55
2019-05-20T09:30:59.118Z,1.72
2019-05-20T09:31:58.829Z,1.22
2019-05-20T09:32:58.968Z,0.89
2019-05-20T09:33:58.974Z,0.39
2019-05-20T09:34:59.309Z,1.17
2019-05-20T09:35:58.474Z,1.39
2019-05-20T09:36:59.185Z,0.71
2019-05-20T09:37:58.675Z,1.03
2019-05-20T09:38:59.404Z,1.36
2019-05-20T09:39:58.466Z,1.28
2019-05-20T09:40:58.815Z,1.07
2019-05-20T09:41:58.795Z,0.78
2019-05-20T09:42:59.434Z,1.27
2019-05-20T09:43:59.694Z,1.26
2019-05-20T09:45:02.803Z,1.46
2019-05-20T09:46:07.542Z,0.85
2019-05-20T09:46:58.536Z,0.85
2019-05-20T09:47:59.836Z,1.41
2019-05-20T09:48:58.557Z,0.88
2019-05-20T09:50:01.617Z,1.00
2019-05-20T09:50:58.462Z,0.94
2019-05-20T09:51:58.478Z,2.39
2019-05-20T09:52:58.576Z,2.51
2019-05-20T09:53:58.526Z,1.82
2019-05-20T09:54:58.468Z,1.99
2019-05-20T09:55:58.404Z,1.44
2019-05-20T09:56:58.468Z,1.18
2019-05-20T09:57:58.490Z,1.22
2019-05-20T09:58:58.490Z,1.06
2019-05-20T09:59:58.494Z,0.74
2019-05-20T10:00:58.443Z,0.92
2019-05-20T10:01:58.520Z,0.49
2019-05-20T10:02:58.512Z,1.35
2019-05-20T10:03:58.776Z,1.14
2019-05-20T10:04:58.539Z,1.00
2019-05-20T10:05:58.490Z,1.03
2019-05-20T10:06:58.455Z,1.56
2019-05-20T10:07:58.763Z,1.19
2019-05-20T10:08:58.588Z,1.91
2019-05-20T10:09:58.471Z,0.54
2019-05-20T10:11:01.486Z,1.65
2019-05-20T10:11:58.852Z,0.67
2019-05-20T10:12:58.955Z,0.66
2019-05-20T10:13:58.423Z,0.73
2019-05-20T10:14:58.515Z,0.60
2019-05-20T10:15:58.508Z,1.14
2019-05-20T10:16:58.505Z,1.32
2019-05-20T10:17:58.865Z,0.01
2019-05-20T10:18:59.434Z,0.13
2019-05-20T10:19:59.273Z,1.66
2019-05-20T10:20:58.962Z,1.18
2019-05-20T10:21:58.470Z,0.96
2019-05-20T10:22:58.515Z,0.48
2019-05-20T10:23:58.639Z,0.04
2019-05-20T10:24:58.856Z,0.59
2019-05-20T10:25:58.516Z,0.60
2019-05-20T10:26:58.526Z,0.59
2019-05-20T10:27:59.038Z,0.86
2019-05-20T10:28:58.475Z,1.21
2019-05-20T10:29:58.668Z,0.63
2019-05-20T10:30:58.756Z,0.41
2019-05-20T10:31:58.829Z,1.48
2019-05-20T10:32:59.422Z,2.82
2019-05-20T10:33:58.544Z,1.10
2019-05-20T10:34:58.809Z,0.25
2019-05-20T10:35:58.630Z,1.28
2019-05-20T10:36:59.891Z,0.71
2019-05-20T10:37:58.497Z,1.06
2019-05-20T10:38:59.688Z,1.03
2019-05-20T10:39:58.501Z,0.66
2019-05-20T10:40:58.511Z,0.62
2019-05-20T10:41:58.563Z,0.78
2019-05-20T10:42:58.887Z,0.32
2019-05-20T10:43:58.475Z,1.00
2019-05-20T10:44:58.590Z,1.47
2019-05-20T10:45:58.554Z,0.93
2019-05-20T10:46:58.498Z,0.47
2019-05-20T10:47:58.891Z,0.96
2019-05-20T10:48:58.527Z,0.88
2019-05-20T10:49:58.826Z,0.93
2019-05-20T10:50:58.877Z,1.09
2019-05-20T10:51:58.969Z,0.52
2019-05-20T10:52:58.508Z,0.76
2019-05-20T10:53:58.551Z,0.89
2019-05-20T10:54:58.521Z,0.91
2019-05-20T10:55:59.016Z,0.28
2019-05-20T10:56:59.991Z,0.99
2019-05-20T10:57:58.881Z,0.24
2019-05-20T10:58:58.554Z,0.39
2019-05-20T10:59:59.204Z,0.41
2019-05-20T11:01:03.133Z,1.11
2019-05-20T11:01:58.867Z,1.03
2019-05-20T11:02:59.135Z,1.37
2019-05-20T11:03:58.907Z,2.59
2019-05-20T11:04:58.530Z,2.15
2019-05-20T11:05:58.568Z,1.85
2019-05-20T11:06:58.571Z,2.12
2019-05-20T11:07:58.570Z,1.40
2019-05-20T11:09:13.096Z,0.98
2019-05-20T11:09:59.608Z,1.30
2019-05-20T11:10:58.622Z,1.28
2019-05-20T11:11:58.830Z,1.07
2019-05-20T11:12:58.918Z,0.71
2019-05-20T11:13:58.569Z,1.25
2019-05-20T11:14:58.486Z,1.47
2019-05-20T11:15:58.570Z,1.84
2019-05-20T11:16:58.866Z,1.14
2019-05-20T11:17:58.885Z,0.82
2019-05-20T11:18:58.566Z,1.10
2019-05-20T11:19:59.245Z,1.25
2019-05-20T11:20:58.600Z,0.97
2019-05-20T11:21:58.597Z,2.42
2019-05-20T11:23:01.039Z,1.36
2019-05-20T11:23:59.572Z,0.88
2019-05-20T11:24:58.562Z,1.80
2019-05-20T11:25:58.635Z,0.93
2019-05-20T11:26:59.132Z,0.85
2019-05-20T11:27:58.645Z,1.14
2019-05-20T11:28:58.573Z,0.92
2019-05-20T11:29:58.524Z,1.35
2019-05-20T11:30:59.674Z,1.24
2019-05-20T11:31:58.909Z,0.84
2019-05-20T11:32:59.186Z,0.98
2019-05-20T11:33:59.326Z,0.72
2019-05-20T11:34:58.625Z,0.33
2019-05-20T11:35:58.553Z,1.14
2019-05-20T11:36:58.620Z,1.42
2019-05-20T11:37:58.697Z,1.05
2019-05-20T11:38:58.661Z,0.76
2019-05-20T11:39:58.952Z,1.74
2019-05-20T11:40:59.497Z,1.00
2019-05-20T11:41:58.718Z,0.37
2019-05-20T11:42:58.944Z,1.39
2019-05-20T11:43:59.286Z,1.82
2019-05-20T11:44:58.580Z,1.77
2019-05-20T11:45:58.600Z,1.14
2019-05-20T11:46:58.767Z,0.64
2019-05-20T11:47:59.376Z,0.98
2019-05-20T11:48:59.330Z,0.59
2019-05-20T11:49:58.566Z,1.00
2019-05-20T11:50:58.975Z,1.25
2019-05-20T11:51:58.698Z,1.34
2019-05-20T11:52:58.620Z,0.99
2019-05-20T11:53:58.572Z,2.02
2019-05-20T11:54:58.980Z,1.28
2019-05-20T11:55:58.625Z,1.25
2019-05-20T11:56:58.590Z,0.80
2019-05-20T11:58:14.612Z,1.50
2019-05-20T11:58:58.621Z,1.44
2019-05-20T11:59:58.654Z,1.41
2019-05-20T12:00:58.739Z,1.42
2019-05-20T12:01:58.645Z,1.57
2019-05-20T12:02:59.625Z,1.18
2019-05-20T12:03:58.531Z,0.98
2019-05-20T12:04:59.310Z,1.37
2019-05-20T12:05:58.652Z,0.41
2019-05-20T12:06:58.522Z,1.62
2019-05-20T12:07:59.148Z,2.21
2019-05-20T12:08:58.763Z,0.93
2019-05-20T12:09:58.900Z,1.14
2019-05-20T12:10:58.944Z,1.02
2019-05-20T12:11:58.632Z,1.16
2019-05-20T12:12:59.725Z,0.82
2019-05-20T12:13:58.621Z,0.55
2019-05-20T12:14:59.409Z,0.94
2019-05-20T12:15:59.566Z,0.90
2019-05-20T12:16:58.973Z,0.33
2019-05-20T12:17:58.648Z,0.86
2019-05-20T12:18:58.591Z,0.79
2019-05-20T12:19:58.998Z,0.74
2019-05-20T12:20:58.591Z,0.72
2019-05-20T12:21:58.564Z,0.42
2019-05-20T12:22:59.693Z,1.42
2019-05-20T12:23:58.662Z,1.17
2019-05-20T12:24:58.943Z,1.10
2019-05-20T12:25:58.681Z,0.99
2019-05-20T12:26:59.597Z,0.97
2019-05-20T12:27:59.330Z,0.65
2019-05-20T12:28:59.203Z,1.08
2019-05-20T12:29:58.621Z,1.53
2019-05-20T12:30:58.583Z,0.74
2019-05-20T12:32:03.230Z,1.06
2019-05-20T12:33:17.921Z,0.97
2019-05-20T12:33:58.647Z,0.24
2019-05-20T12:34:59.392Z,0.66
2019-05-20T12:35:58.857Z,0.58
2019-05-20T12:36:58.661Z,1.36
2019-05-20T12:37:59.395Z,1.15
2019-05-20T12:38:58.879Z,1.26
2019-05-20T12:40:06.904Z,0.87
2019-05-20T12:40:58.852Z,1.36
2019-05-20T12:41:58.745Z,1.50
2019-05-20T12:42:58.591Z,1.20
2019-05-20T12:44:11.105Z,0.53
2019-05-20T12:44:58.757Z,1.51
2019-05-20T12:45:58.639Z,0.80
2019-05-20T12:46:58.715Z,0.96
2019-05-20T12:47:58.681Z,1.55
2019-05-20T12:48:59.079Z,1.00
2019-05-20T12:49:59.333Z,1.25
2019-05-20T12:50:58.692Z,1.19
2019-05-20T12:51:58.633Z,1.02
2019-05-20T12:52:59.037Z,0.98
2019-05-20T12:53:58.822Z,1.08
2019-05-20T12:55:07.891Z,0.59
2019-05-20T12:55:59.415Z,0.82
2019-05-20T12:56:58.679Z,0.74
2019-05-20T12:57:58.653Z,0.50
2019-05-20T12:58:58.698Z,0.66
2019-05-20T12:59:59.124Z,1.51
2019-05-20T13:00:58.633Z,0.28
2019-05-20T13:01:58.724Z,1.33
2019-05-20T13:02:58.721Z,0.94
2019-05-20T13:03:58.975Z,1.38
2019-05-20T13:04:59.052Z,1.39
2019-05-20T13:05:58.690Z,1.94
2019-05-20T13:06:59.342Z,1.78
2019-05-20T13:07:58.747Z,2.06
2019-05-20T13:08:58.999Z,2.08
2019-05-20T13:10:02.815Z,0.56
2019-05-20T13:10:59.471Z,0.76
2019-05-20T13:11:59.393Z,1.12
2019-05-20T13:12:58.667Z,1.13
2019-05-20T13:13:58.809Z,1.03
2019-05-20T13:14:58.741Z,2.08
2019-05-20T13:15:59.656Z,1.09
2019-05-20T13:16:59.145Z,1.08
2019-05-20T13:17:58.711Z,1.74
2019-05-20T13:18:59.393Z,1.02
2019-05-20T13:20:00.397Z,1.94
2019-05-20T13:20:58.724Z,1.00
2019-05-20T13:21:58.664Z,2.50
2019-05-20T13:22:58.636Z,2.17